Time;durP1;ratioP1;P1;durP2;ratioP2;P2;SDS_P1;SDS_P2;PMS_P1;PMS_P2;Temp;Humidity;BMP_temperature;BMP_pressure;BME280_temperature;BME280_humidity;BME280_pressure;Samples;Min_cycle;Max_cycle;Signal;HPM_P1;HPM_P2
2022/09/01 00:01:19;;;;;;;3.90;1.10;;;16.10;99.90;;;;;;5049641;28;20017;-74
2022/09/01 00:03:51;;;;;;;5.78;1.60;;;16.20;99.90;;;;;;5051060;28;20017;-73
2022/09/01 00:06:21;;;;;;;;;;;16.10;99.90;;;;;;5051632;28;20016;-73
2022/09/01 00:08:56;;;;;;;8.35;1.25;;;16.20;99.90;;;;;;5051407;28;19928;-74
2022/09/01 00:11:23;;;;;;;6.68;1.60;;;16.10;99.90;;;;;;5061828;28;20033;-73
2022/09/01 00:13:49;;;;;;;10.05;1.50;;;16.20;99.90;;;;;;5070970;28;20039;-73
2022/09/01 00:16:17;;;;;;;6.13;1.10;;;16.20;99.90;;;;;;5070927;28;20429;-73
2022/09/01 00:18:50;;;;;;;6.40;1.30;;;16.20;99.90;;;;;;5070882;28;20023;-73
2022/09/01 00:21:26;;;;;;;8.80;2.08;;;16.20;99.90;;;;;;5070905;28;20040;-73
2022/09/01 00:23:52;;;;;;;7.45;1.70;;;16.20;99.90;;;;;;5070955;28;20103;-73
2022/09/01 00:26:18;;;;;;;7.97;1.70;;;16.20;99.90;;;;;;5070238;28;20024;-73
2022/09/01 00:28:44;;;;;;;5.38;1.30;;;16.10;99.90;;;;;;5071114;28;20029;-74
2022/09/01 00:31:10;;;;;;;3.35;1.10;;;16.20;99.90;;;;;;5071081;28;20518;-74
2022/09/01 00:33:36;;;;;;;8.43;1.27;;;16.10;99.90;;;;;;5070824;28;20039;-73
2022/09/01 00:36:04;;;;;;;6.78;1.55;;;16.10;99.90;;;;;;5070993;28;20029;-73
2022/09/01 00:38:30;;;;;;;6.38;1.30;;;16.00;99.90;;;;;;5070799;28;20100;-74
2022/09/01 00:40:56;;;;;;;4.40;0.70;;;16.00;99.90;;;;;;5070784;28;20491;-73
2022/09/01 00:43:37;;;;;;;6.35;1.50;;;16.00;99.90;;;;;;5070858;28;20112;-74
2022/09/01 00:46:08;;;;;;;3.70;1.00;;;15.90;99.90;;;;;;5071150;28;20036;-73
2022/09/01 00:48:33;;;;;;;8.93;1.45;;;15.90;99.90;;;;;;5070873;28;20104;-74
2022/09/01 00:51:00;;;;;;;5.20;1.23;;;15.90;99.90;;;;;;5071983;28;20060;-73
2022/09/01 00:53:27;;;;;;;10.35;1.60;;;15.90;99.90;;;;;;5074434;28;20035;-73
2022/09/01 00:55:53;;;;;;;4.65;1.33;;;15.90;99.90;;;;;;5074156;28;20021;-73
2022/09/01 00:58:19;;;;;;;5.97;1.50;;;16.00;99.90;;;;;;5074534;28;20023;-73
2022/09/01 01:00:48;;;;;;;5.10;1.25;;;15.90;99.90;;;;;;5074124;28;20036;-73
2022/09/01 01:03:14;;;;;;;11.60;1.85;;;16.00;99.90;;;;;;5073609;28;20111;-73
2022/09/01 01:05:50;;;;;;;6.75;1.50;;;16.00;99.90;;;;;;5074714;28;20405;-74
2022/09/01 01:08:18;;;;;;;3.65;1.40;;;16.00;99.90;;;;;;5074667;28;20052;-73
2022/09/01 01:10:44;;;;;;;5.90;0.93;;;15.90;99.90;;;;;;5074348;28;20498;-73
2022/09/01 01:13:14;;;;;;;5.07;1.23;;;15.90;99.90;;;;;;5074163;28;20051;-73
2022/09/01 01:15:42;;;;;;;9.93;1.33;;;15.90;99.90;;;;;;5073982;28;20028;-73
2022/09/01 01:18:13;;;;;;;12.05;1.65;;;15.90;99.90;;;;;;5073807;28;20021;-73
2022/09/01 01:23:39;;;;;;;8.32;1.15;;;15.90;99.90;;;;;;5074280;28;20027;-73
2022/09/01 01:26:08;;;;;;;8.93;1.40;;;16.00;99.90;;;;;;5073721;28;20373;-73
2022/09/01 01:28:40;;;;;;;8.13;1.40;;;16.10;99.90;;;;;;5074182;28;20021;-73
2022/09/01 01:31:17;;;;;;;11.02;1.60;;;16.00;99.90;;;;;;5074220;28;20066;-73
2022/09/01 01:33:52;;;;;;;10.50;1.27;;;15.90;99.90;;;;;;5074152;28;20093;-73
2022/09/01 01:36:35;;;;;;;4.25;1.00;;;15.90;99.90;;;;;;5072480;28;20025;-73
2022/09/01 01:39:07;;;;;;;8.55;1.48;;;16.00;99.90;;;;;;5073334;28;20029;-73
2022/09/01 01:41:34;;;;;;;9.18;1.75;;;16.00;99.90;;;;;;5073366;28;20431;-74
2022/09/01 01:44:04;;;;;;;3.00;1.10;;;16.00;99.90;;;;;;5074089;28;20385;-73
2022/09/01 01:46:34;;;;;;;5.18;1.42;;;16.10;99.90;;;;;;5074045;28;20063;-73
2022/09/01 16:41:06;;;;;;;13.90;6.18;;;24.30;76.70;;;;;;5088396;28;20447;-74
2022/09/01 16:44:14;;;;;;;12.40;6.82;;;24.80;73.40;;;;;;5088224;28;20064;-74
2022/09/01 16:46:50;;;;;;;7.95;5.45;;;24.90;72.50;;;;;;5088420;28;20029;-74
2022/09/01 16:49:46;;;;;;;8.30;5.53;;;24.80;71.80;;;;;;5070233;28;20071;-74
2022/09/01 16:52:23;;;;;;;7.30;3.85;;;24.50;72.90;;;;;;5070586;28;20062;-74
2022/09/01 16:55:04;;;;;;;5.80;3.50;;;24.30;74.90;;;;;;5088459;28;20021;-74
2022/09/01 16:57:48;;;;;;;5.23;3.07;;;24.10;74.00;;;;;;5087943;28;20028;-74
2022/09/01 17:00:17;;;;;;;6.30;3.25;;;23.90;79.40;;;;;;5087952;28;20285;-74
2022/09/01 17:03:16;;;;;;;5.28;3.28;;;23.60;80.50;;;;;;5088191;28;20111;-74
2022/09/01 17:06:07;;;;;;;4.47;2.80;;;23.40;83.60;;;;;;5088246;28;20021;-74
2022/09/01 17:08:51;;;;;;;5.53;3.30;;;23.30;88.00;;;;;;5088022;28;20366;-74
2022/09/01 17:11:50;;;;;;;4.63;3.10;;;23.20;90.80;;;;;;5080008;28;20025;-75
2022/09/01 17:14:35;;;;;;;4.60;2.88;;;23.10;89.20;;;;;;5062713;28;20037;-74
2022/09/01 17:17:07;;;;;;;4.40;3.13;;;23.20;91.30;;;;;;5067387;28;20497;-74
2022/09/01 17:19:33;;;;;;;;;;;23.20;88.70;;;;;;5067936;28;20473;-74
2022/09/01 17:22:04;;;;;;;4.97;3.00;;;23.00;88.90;;;;;;5067161;28;19905;-75
2022/09/01 17:25:01;;;;;;;6.90;3.33;;;23.00;91.60;;;;;;5067473;28;20036;-74
2022/09/01 17:27:44;;;;;;;3.35;2.85;;;23.00;90.20;;;;;;5066676;28;20032;-74
2022/09/01 17:30:10;;;;;;;6.72;3.15;;;22.90;92.30;;;;;;5067567;28;20373;-74
2022/09/01 17:32:42;;;;;;;5.82;3.58;;;22.80;94.20;;;;;;5067407;28;20024;-74
2022/09/01 17:35:30;;;;;;;3.22;2.75;;;22.60;94.80;;;;;;5066563;28;20497;-74
2022/09/01 17:38:39;;;;;;;5.15;3.50;;;22.60;98.00;;;;;;5067213;28;20017;-74
2022/09/01 17:41:33;;;;;;;4.85;3.50;;;22.40;96.60;;;;;;5066984;28;20120;-74
2022/09/01 17:44:25;;;;;;;4.25;3.33;;;22.40;97.40;;;;;;5067403;28;20529;-75
2022/09/01 17:46:52;;;;;;;6.57;3.35;;;22.40;99.20;;;;;;5049903;28;20047;-74
2022/09/01 17:49:34;;;;;;;4.80;3.10;;;22.30;98.70;;;;;;5066546;28;20027;-74
2022/09/01 17:52:07;;;;;;;6.60;3.30;;;22.20;99.90;;;;;;5051702;28;20107;-74
2022/09/01 17:55:05;;;;;;;7.72;3.13;;;22.10;99.90;;;;;;5053557;28;20044;-75
2022/09/01 17:57:52;;;;;;;8.60;4.15;;;22.00;99.90;;;;;;5053415;28;20358;-74
2022/09/01 18:00:26;;;;;;;10.55;4.72;;;21.80;99.90;;;;;;5053553;28;20033;-74
2022/09/01 18:03:04;;;;;;;8.55;5.20;;;21.40;99.90;;;;;;5053246;28;20013;-74
2022/09/01 18:05:46;;;;;;;5.55;4.10;;;20.80;99.90;;;;;;5053349;28;20098;-74
2022/09/01 18:08:18;;;;;;;9.68;4.97;;;20.30;99.90;;;;;;5053656;28;20052;-74
2022/09/01 18:11:04;;;;;;;8.52;4.78;;;20.10;99.90;;;;;;5061960;28;20017;-74
2022/09/01 18:13:53;;;;;;;7.47;5.03;;;19.80;99.90;;;;;;5072194;28;20025;-74
2022/09/01 18:16:23;;;;;;;8.13;5.13;;;19.60;99.90;;;;;;5071395;28;20024;-74
2022/09/01 18:18:50;;;;;;;8.10;5.10;;;19.50;99.90;;;;;;5055253;28;20495;-74
2022/09/01 18:21:23;;;;;;;8.20;5.88;;;19.40;99.90;;;;;;5073385;28;20077;-74
2022/09/01 18:23:56;;;;;;;9.63;6.35;;;19.20;99.90;;;;;;5073324;28;20024;-74
2022/09/01 18:26:31;;;;;;;16.45;6.93;;;19.10;99.90;;;;;;5072963;28;20067;-74
2022/09/01 18:29:00;;;;;;;8.05;6.38;;;19.00;99.90;;;;;;5072816;28;20028;-74
2022/09/01 18:31:32;;;;;;;9.30;6.20;;;19.00;99.90;;;;;;5073162;28;20024;-74
2022/09/01 18:34:13;;;;;;;;;;;19.00;99.90;;;;;;5072994;28;20487;-74
2022/09/01 18:36:51;;;;;;;6.85;5.18;;;18.90;99.90;;;;;;5052932;28;19954;-75
2022/09/01 18:39:40;;;;;;;6.05;5.38;;;18.90;99.90;;;;;;5057476;28;20024;-74
2022/09/01 18:42:14;;;;;;;8.10;5.88;;;18.80;99.90;;;;;;5017845;28;20033;-74
2022/09/01 18:45:04;;;;;;;7.18;6.22;;;18.80;99.90;;;;;;5072445;28;20079;-75
2022/09/01 18:47:48;;;;;;;6.90;5.90;;;18.70;99.90;;;;;;5076268;22;20064;-74
2022/09/01 18:50:55;;;;;;;11.50;6.22;;;18.70;99.90;;;;;;5052242;28;20040;-74
2022/09/01 18:53:33;;;;;;;8.02;6.00;;;18.70;99.90;;;;;;5052472;28;20037;-76
2022/09/01 18:56:03;;;;;;;8.50;6.13;;;18.60;99.90;;;;;;5052990;28;20464;-73
2022/09/01 18:58:39;;;;;;;8.77;6.50;;;18.60;99.90;;;;;;5068653;28;20017;-79
2022/09/01 19:01:12;;;;;;;6.43;5.65;;;18.60;99.90;;;;;;5072606;28;20380;-78
2022/09/01 19:03:44;;;;;;;12.77;6.18;;;18.60;99.90;;;;;;5071727;28;20534;-74
2022/09/01 19:06:24;;;;;;;7.35;5.85;;;18.60;99.90;;;;;;5072493;28;20020;-74
2022/09/01 19:09:01;;;;;;;8.40;6.00;;;18.60;99.90;;;;;;5072428;28;20032;-77
2022/09/01 19:12:00;;;;;;;7.97;6.30;;;18.60;99.90;;;;;;5071058;28;20021;-80
2022/09/01 19:14:44;;;;;;;7.50;5.93;;;18.60;99.90;;;;;;5072604;28;20487;-84
2022/09/01 19:17:42;;;;;;;8.93;6.57;;;18.60;99.90;;;;;;5072246;28;20024;-78
2022/09/01 19:20:25;;;;;;;10.02;6.50;;;18.50;99.90;;;;;;5054365;28;20024;-77
2022/09/01 19:23:01;;;;;;;12.07;7.45;;;18.50;99.90;;;;;;5052284;28;20025;-78
2022/09/01 19:25:35;;;;;;;13.15;6.82;;;18.40;99.90;;;;;;5052200;28;20025;-79
2022/09/01 19:28:25;;;;;;;13.50;7.50;;;18.40;99.90;;;;;;5039834;28;20029;-82
2022/09/01 19:31:08;;;;;;;8.85;6.68;;;18.40;99.90;;;;;;5034712;28;20484;-77
2022/09/01 19:33:46;;;;;;;9.60;7.07;;;18.40;99.90;;;;;;5039924;28;20025;-79
2022/09/01 19:36:18;;;;;;;13.52;7.85;;;18.40;99.90;;;;;;5030778;28;20022;-87
2022/09/01 19:38:45;;;;;;;14.00;7.10;;;18.40;99.90;;;;;;5014037;28;20025;-80
2022/09/01 19:41:58;;;;;;;9.55;6.70;;;18.40;99.90;;;;;;5042648;28;20540;-82
2022/09/01 19:45:02;;;;;;;10.82;7.50;;;18.40;99.90;;;;;;5007785;28;20044;-74
2022/09/01 19:47:46;;;;;;;14.07;7.93;;;18.40;99.90;;;;;;5028012;23;20055;-73
2022/09/01 19:50:18;;;;;;;14.57;8.30;;;18.40;99.90;;;;;;5050615;28;20443;-74
2022/09/01 19:53:04;;;;;;;16.10;9.63;;;18.30;99.90;;;;;;5047683;28;20052;-75
2022/09/01 19:55:45;;;;;;;14.50;8.88;;;18.20;99.90;;;;;;5065501;28;20351;-75
2022/09/01 19:58:19;;;;;;;15.63;9.18;;;18.20;99.90;;;;;;5035433;28;20028;-75
2022/09/01 20:00:52;;;;;;;12.80;9.48;;;18.10;99.90;;;;;;5051268;28;20028;-74
2022/09/01 20:03:26;;;;;;;13.00;9.40;;;18.10;99.90;;;;;;5050910;28;20037;-74
2022/09/01 20:05:59;;;;;;;18.45;9.48;;;18.00;99.90;;;;;;5051312;28;20105;-74
2022/09/01 20:08:53;;;;;;;14.27;9.48;;;18.00;99.90;;;;;;5033303;28;20428;-74
2022/09/01 20:11:27;;;;;;;13.07;9.63;;;18.00;99.90;;;;;;5047484;28;20041;-74
2022/09/01 20:14:19;;;;;;;17.73;8.63;;;18.10;99.90;;;;;;5039058;28;20021;-75
2022/09/01 20:17:14;;;;;;;13.20;8.98;;;18.20;99.90;;;;;;5048858;28;20029;-75
2022/09/01 20:19:44;;;;;;;12.73;8.45;;;18.40;99.90;;;;;;5049939;28;20638;-76
2022/09/01 20:22:35;;;;;;;10.70;8.35;;;18.40;99.90;;;;;;5042101;28;20057;-74
2022/09/01 20:25:09;;;;;;;15.48;8.73;;;18.40;99.90;;;;;;5041789;28;20021;-74
2022/09/01 20:27:48;;;;;;;15.80;9.18;;;18.40;99.90;;;;;;5039277;28;20097;-75
2022/09/01 20:30:20;;;;;;;13.95;8.63;;;18.30;99.90;;;;;;5040382;28;20083;-75
2022/09/01 20:32:55;;;;;;;17.45;9.73;;;18.30;99.90;;;;;;5040659;28;20021;-75
2022/09/01 20:36:02;;;;;;;16.27;10.65;;;18.20;99.90;;;;;;5029290;28;20034;-76
2022/09/01 20:41:41;;;;;;;19.48;11.88;;;17.90;99.90;;;;;;4965311;28;20068;-75
2022/09/01 20:44:23;;;;;;;15.90;11.68;;;17.90;99.90;;;;;;5014996;28;20040;-76
2022/09/01 20:46:51;;;;;;;22.05;12.55;;;17.80;99.90;;;;;;5027229;28;20393;-75
2022/09/01 20:49:16;;;;;;;15.43;11.52;;;17.80;99.90;;;;;;5026746;28;20048;-75
2022/09/01 20:51:52;;;;;;;21.33;13.48;;;17.70;99.90;;;;;;5027498;28;20022;-75
2022/09/01 20:54:41;;;;;;;23.23;13.68;;;17.70;99.90;;;;;;5026665;28;20045;-77
2022/09/01 20:57:25;;;;;;;19.05;12.93;;;17.60;99.90;;;;;;5036951;28;20025;-78
2022/09/01 21:00:08;;;;;;;24.63;14.25;;;17.50;99.90;;;;;;5040848;28;20080;-75
2022/09/01 21:02:53;;;;;;;19.27;13.75;;;17.50;99.90;;;;;;5034714;28;20059;-76
2022/09/01 21:05:32;;;;;;;19.17;13.35;;;17.40;99.90;;;;;;5037361;28;20013;-74
2022/09/01 21:08:01;;;;;;;23.70;15.25;;;17.40;99.90;;;;;;5029714;28;20049;-75
2022/09/01 21:10:36;;;;;;;21.63;15.70;;;17.40;99.90;;;;;;5026507;28;20046;-75
2022/09/01 21:13:25;;;;;;;26.65;17.08;;;17.30;99.90;;;;;;5044244;28;20017;-74
2022/09/01 21:16:13;;;;;;;24.30;16.08;;;17.30;99.90;;;;;;5039973;28;20455;-74
2022/09/01 21:19:00;;;;;;;27.98;16.85;;;17.20;99.90;;;;;;5042289;28;20024;-74
2022/09/01 21:21:45;;;;;;;26.83;16.83;;;17.30;99.90;;;;;;5044494;28;20024;-74
2022/09/01 21:24:11;;;;;;;29.52;17.25;;;17.30;99.90;;;;;;5041544;28;20100;-75
2022/09/01 21:26:39;;;;;;;28.65;19.13;;;17.30;99.90;;;;;;5034376;28;20109;-74
2022/09/01 21:29:28;;;;;;;28.65;18.85;;;17.20;99.90;;;;;;5038828;28;20128;-74
2022/09/01 21:31:55;;;;;;;31.48;19.80;;;17.20;99.90;;;;;;5031890;28;20090;-74
2022/09/01 21:34:21;;;;;;;30.63;18.42;;;17.10;99.90;;;;;;5040215;28;20021;-74
2022/09/01 21:36:46;;;;;;;42.95;18.83;;;17.10;99.90;;;;;;5038457;28;20024;-74
2022/09/01 21:39:13;;;;;;;25.90;18.13;;;17.10;99.90;;;;;;5037699;28;20032;-75
2022/09/01 21:41:40;;;;;;;27.50;17.70;;;17.10;99.90;;;;;;5042511;28;20017;-74
2022/09/01 21:44:06;;;;;;;29.88;19.10;;;17.10;99.90;;;;;;5020891;28;20067;-74
2022/09/01 21:46:31;;;;;;;29.38;18.77;;;17.10;99.90;;;;;;5031273;28;20474;-75
2022/09/01 21:48:57;;;;;;;26.45;18.77;;;17.20;99.90;;;;;;5041112;28;20065;-76
2022/09/01 21:51:23;;;;;;;33.50;20.33;;;17.10;99.90;;;;;;5041524;28;20358;-75
2022/09/01 21:53:48;;;;;;;27.52;17.88;;;17.10;99.90;;;;;;5038519;28;20679;-76
2022/09/01 21:56:14;;;;;;;28.67;18.50;;;17.10;99.90;;;;;;5043120;28;20029;-77
2022/09/01 21:58:40;;;;;;;25.60;17.00;;;17.10;99.90;;;;;;5041329;28;20036;-76
2022/09/01 22:01:06;;;;;;;29.80;17.35;;;17.10;99.90;;;;;;5038141;28;20025;-75
2022/09/01 22:03:33;;;;;;;25.40;16.98;;;17.10;99.90;;;;;;5035669;28;20472;-76
2022/09/01 22:05:58;;;;;;;24.05;16.98;;;17.10;99.90;;;;;;5038223;28;20072;-76
2022/09/01 22:08:24;;;;;;;28.38;17.20;;;17.10;99.90;;;;;;5040142;28;20481;-76
2022/09/01 22:10:52;;;;;;;26.95;17.33;;;17.00;99.90;;;;;;5033440;28;20041;-74
2022/09/01 22:13:20;;;;;;;31.20;18.15;;;17.00;99.90;;;;;;5052447;28;20477;-74
2022/09/01 22:15:48;;;;;;;26.67;17.90;;;17.00;99.90;;;;;;5053098;28;20047;-75
2022/09/01 22:18:15;;;;;;;27.15;18.00;;;17.00;99.90;;;;;;5049547;28;20026;-74
2022/09/01 22:20:42;;;;;;;27.08;18.55;;;17.00;99.90;;;;;;5052796;28;20561;-74
2022/09/01 22:23:08;;;;;;;24.77;17.00;;;17.00;99.90;;;;;;5053610;28;20036;-74
2022/09/01 22:25:38;;;;;;;30.42;19.42;;;17.00;99.90;;;;;;5053066;28;20634;-74
2022/09/01 22:28:05;;;;;;;28.23;18.73;;;17.00;99.90;;;;;;5052725;28;20086;-74
2022/09/01 22:30:31;;;;;;;23.65;17.15;;;17.00;99.90;;;;;;5052942;28;20083;-74
2022/09/01 22:32:58;;;;;;;24.75;17.35;;;17.00;99.90;;;;;;5052853;28;20025;-74
2022/09/01 22:35:24;;;;;;;24.73;17.95;;;17.00;99.90;;;;;;5052986;28;20036;-74
2022/09/01 22:37:50;;;;;;;26.55;16.48;;;17.00;99.90;;;;;;5052822;28;20017;-74
2022/09/01 22:40:16;;;;;;;24.50;15.82;;;17.00;99.90;;;;;;5052750;28;20071;-74
2022/09/01 22:42:42;;;;;;;30.83;16.70;;;17.00;99.90;;;;;;5052265;28;20069;-74
2022/09/01 22:45:08;;;;;;;21.45;16.23;;;17.00;99.90;;;;;;5052768;28;20025;-74
2022/09/01 22:47:35;;;;;;;22.95;16.55;;;16.90;99.90;;;;;;5053222;28;20138;-74
2022/09/01 22:50:00;;;;;;;28.40;16.85;;;16.90;99.90;;;;;;5052590;28;20045;-74
2022/09/01 22:52:28;;;;;;;23.10;16.60;;;16.90;99.90;;;;;;5052806;28;20401;-76
2022/09/01 22:54:55;;;;;;;21.60;17.05;;;17.00;99.90;;;;;;5052967;28;20028;-75
2022/09/01 22:57:21;;;;;;;21.10;16.33;;;16.90;99.90;;;;;;5052431;28;20025;-75
2022/09/01 22:59:46;;;;;;;30.13;16.75;;;17.00;99.90;;;;;;5052568;28;20079;-75
2022/09/01 23:02:12;;;;;;;24.60;15.70;;;17.00;99.90;;;;;;5052293;28;20031;-75
2022/09/01 23:04:41;;;;;;;25.90;17.08;;;17.00;99.90;;;;;;5052541;28;20043;-73
2022/09/01 23:07:07;;;;;;;26.95;16.75;;;17.00;99.90;;;;;;5052416;28;20013;-75
2022/09/01 23:09:33;;;;;;;22.67;15.93;;;16.90;99.90;;;;;;5052502;28;20102;-73
2022/09/01 23:11:58;;;;;;;23.27;16.17;;;17.00;99.90;;;;;;5051237;28;20025;-74
2022/09/01 23:14:25;;;;;;;24.92;15.48;;;17.00;99.90;;;;;;5052549;28;20355;-73
2022/09/01 23:16:51;;;;;;;27.63;16.10;;;17.00;99.90;;;;;;5051995;28;20469;-74
2022/09/01 23:19:18;;;;;;;23.50;16.10;;;17.00;99.90;;;;;;5052121;28;20078;-73
2022/09/01 23:21:46;;;;;;;25.45;17.40;;;17.00;99.90;;;;;;5052368;28;20021;-73
2022/09/01 23:24:12;;;;;;;22.80;17.33;;;16.90;99.90;;;;;;5051982;28;20116;-73
2022/09/01 23:26:38;;;;;;;22.83;16.00;;;16.90;99.90;;;;;;5051850;28;20100;-73
2022/09/01 23:29:04;;;;;;;23.02;16.58;;;16.90;99.90;;;;;;5051632;28;20036;-73
2022/09/01 23:31:32;;;;;;;24.40;17.38;;;16.90;99.90;;;;;;5051929;28;20055;-74
2022/09/01 23:33:57;;;;;;;24.83;17.17;;;16.90;99.90;;;;;;5052243;28;20082;-73
2022/09/01 23:36:26;;;;;;;24.67;17.95;;;16.90;99.90;;;;;;5051864;28;20100;-74
2022/09/01 23:38:51;;;;;;;25.00;16.70;;;16.90;99.90;;;;;;5051601;28;20025;-74
2022/09/01 23:41:24;;;;;;;23.75;17.30;;;16.90;99.90;;;;;;5051297;28;20147;-73
2022/09/01 23:43:53;;;;;;;27.95;17.55;;;16.90;99.90;;;;;;5051457;28;20108;-74
2022/09/01 23:46:23;;;;;;;22.13;15.70;;;16.90;99.90;;;;;;5051107;28;20103;-73
2022/09/01 23:48:49;;;;;;;24.48;16.33;;;16.90;99.90;;;;;;5051469;28;20513;-74
2022/09/01 23:51:16;;;;;;;27.10;17.13;;;16.80;99.90;;;;;;5051580;28;20021;-73
2022/09/01 23:53:43;;;;;;;25.92;16.63;;;16.80;99.90;;;;;;5051503;28;20128;-74
2022/09/01 23:56:19;;;;;;;26.38;16.35;;;16.80;99.90;;;;;;5051125;28;20437;-74
2022/09/01 23:58:45;;;;;;;24.20;16.45;;;16.80;99.90;;;;;;5051229;28;20024;-74
